Lakeside, California
Current Conditions -  °F | °C
As of 10:53 AM on Thursday 18 Dec 2014 (Local Time) from KRNM Reporting Station
Broken Clouds Broken Clouds  
Wind Chill: 13°   Ceiling: 4000
Heat Index: 13°   Visibility: 10mi
Dew Point:   Wind: 0mph
Humidity: 74%   Direction: NA
Pressure: 30.2"   Gusts: NA
Location:  32.85°N, 116.9°W
Report Text: KRNM 181853Z 00000KT 10SM BKN040 13/08 A3020 RMK AO2 RAB03E24 SLP222 P0000 T01280083
Loading
Personal Weather Stations






























Interactive Weather Map New forecast layout! Learn more

10-Day Weather Forecast

Advertisements
Track Severe Weather on mobile